sensor_id;sensor_type;location;lat;lon;timestamp;P1;durP1;ratioP1;P2;durP2;ratioP2
24567;SDS011;12731;52.182;8.716;2023-08-17T00:01:10;5.13;;;2.25;;
24567;SDS011;12731;52.182;8.716;2023-08-17T00:03:37;5.97;;;2.20;;
24567;SDS011;12731;52.182;8.716;2023-08-17T00:06:04;6.35;;;2.47;;
24567;SDS011;12731;52.182;8.716;2023-08-17T00:08:30;5.07;;;2.63;;
24567;SDS011;12731;52.182;8.716;2023-08-17T00:10:57;4.97;;;2.25;;
24567;SDS011;12731;52.182;8.716;2023-08-17T00:13:23;8.80;;;2.83;;
24567;SDS011;12731;52.182;8.716;2023-08-17T00:15:50;5.88;;;2.40;;
24567;SDS011;12731;52.182;8.716;2023-08-17T00:18:16;6.88;;;2.20;;
24567;SDS011;12731;52.182;8.716;2023-08-17T00:20:43;9.27;;;2.35;;
24567;SDS011;12731;52.182;8.716;2023-08-17T00:23:10;5.05;;;2.40;;
24567;SDS011;12731;52.182;8.716;2023-08-17T00:25:37;6.60;;;2.60;;
24567;SDS011;12731;52.182;8.716;2023-08-17T00:28:03;9.13;;;2.60;;
24567;SDS011;12731;52.182;8.716;2023-08-17T00:30:30;5.30;;;2.55;;
24567;SDS011;12731;52.182;8.716;2023-08-17T00:32:57;6.35;;;2.78;;
24567;SDS011;12731;52.182;8.716;2023-08-17T00:35:23;5.82;;;2.50;;
24567;SDS011;12731;52.182;8.716;2023-08-17T00:37:50;5.78;;;2.70;;
24567;SDS011;12731;52.182;8.716;2023-08-17T00:40:16;7.90;;;3.05;;
24567;SDS011;12731;52.182;8.716;2023-08-17T00:42:43;8.35;;;2.83;;
24567;SDS011;12731;52.182;8.716;2023-08-17T00:45:09;7.88;;;2.80;;
24567;SDS011;12731;52.182;8.716;2023-08-17T00:47:36;6.97;;;2.65;;
24567;SDS011;12731;52.182;8.716;2023-08-17T00:50:03;6.88;;;2.65;;
24567;SDS011;12731;52.182;8.716;2023-08-17T00:52:30;5.32;;;2.70;;
24567;SDS011;12731;52.182;8.716;2023-08-17T00:54:58;7.85;;;2.80;;
24567;SDS011;12731;52.182;8.716;2023-08-17T00:57:24;7.50;;;3.00;;
24567;SDS011;12731;52.182;8.716;2023-08-17T00:59:51;7.13;;;2.92;;
24567;SDS011;12731;52.182;8.716;2023-08-17T01:02:31;5.38;;;3.13;;
24567;SDS011;12731;52.182;8.716;2023-08-17T01:04:57;7.63;;;3.53;;
24567;SDS011;12731;52.182;8.716;2023-08-17T01:07:24;8.32;;;2.97;;
24567;SDS011;12731;52.182;8.716;2023-08-17T01:09:51;5.70;;;3.17;;
24567;SDS011;12731;52.182;8.716;2023-08-17T01:12:31;9.57;;;3.40;;
24567;SDS011;12731;52.182;8.716;2023-08-17T01:15:36;4.68;;;2.90;;
24567;SDS011;12731;52.182;8.716;2023-08-17T01:18:46;4.03;;;3.15;;
24567;SDS011;12731;52.182;8.716;2023-08-17T01:20:55;6.20;;;3.20;;
24567;SDS011;12731;52.182;8.716;2023-08-17T01:23:21;4.32;;;3.25;;
24567;SDS011;12731;52.182;8.716;2023-08-17T01:25:48;5.70;;;3.00;;
24567;SDS011;12731;52.182;8.716;2023-08-17T01:28:15;5.47;;;3.20;;
24567;SDS011;12731;52.182;8.716;2023-08-17T01:30:56;8.82;;;3.70;;
24567;SDS011;12731;52.182;8.716;2023-08-17T01:38:45;8.50;;;4.03;;
24567;SDS011;12731;52.182;8.716;2023-08-17T01:41:12;10.57;;;3.92;;
24567;SDS011;12731;52.182;8.716;2023-08-17T01:43:41;8.55;;;4.03;;
24567;SDS011;12731;52.182;8.716;2023-08-17T01:46:16;9.07;;;3.80;;
24567;SDS011;12731;52.182;8.716;2023-08-17T01:48:44;5.40;;;3.45;;
24567;SDS011;12731;52.182;8.716;2023-08-17T01:51:11;6.63;;;3.60;;
24567;SDS011;12731;52.182;8.716;2023-08-17T01:53:41;4.97;;;3.92;;
24567;SDS011;12731;52.182;8.716;2023-08-17T01:56:08;7.82;;;4.03;;
24567;SDS011;12731;52.182;8.716;2023-08-17T01:58:34;8.45;;;4.03;;
24567;SDS011;12731;52.182;8.716;2023-08-17T02:01:01;9.18;;;4.15;;
24567;SDS011;12731;52.182;8.716;2023-08-17T02:03:27;6.07;;;4.22;;
24567;SDS011;12731;52.182;8.716;2023-08-17T02:05:58;8.45;;;4.07;;
24567;SDS011;12731;52.182;8.716;2023-08-17T02:08:25;8.25;;;4.38;;
24567;SDS011;12731;52.182;8.716;2023-08-17T02:10:51;8.07;;;4.30;;
24567;SDS011;12731;52.182;8.716;2023-08-17T02:13:18;7.80;;;4.90;;
24567;SDS011;12731;52.182;8.716;2023-08-17T02:15:46;6.65;;;4.75;;
24567;SDS011;12731;52.182;8.716;2023-08-17T02:18:13;7.80;;;4.68;;
24567;SDS011;12731;52.182;8.716;2023-08-17T02:20:39;8.55;;;5.22;;
24567;SDS011;12731;52.182;8.716;2023-08-17T02:23:06;11.43;;;4.88;;
24567;SDS011;12731;52.182;8.716;2023-08-17T02:25:32;9.02;;;4.47;;
24567;SDS011;12731;52.182;8.716;2023-08-17T02:28:02;6.97;;;4.35;;
24567;SDS011;12731;52.182;8.716;2023-08-17T02:30:30;9.60;;;4.65;;
24567;SDS011;12731;52.182;8.716;2023-08-17T02:32:56;6.65;;;4.82;;
24567;SDS011;12731;52.182;8.716;2023-08-17T02:35:23;7.68;;;4.45;;
24567;SDS011;12731;52.182;8.716;2023-08-17T02:37:50;7.60;;;4.72;;
24567;SDS011;12731;52.182;8.716;2023-08-17T02:40:17;6.82;;;4.53;;
24567;SDS011;12731;52.182;8.716;2023-08-17T02:42:43;6.60;;;4.47;;
24567;SDS011;12731;52.182;8.716;2023-08-17T02:45:10;6.25;;;4.70;;
24567;SDS011;12731;52.182;8.716;2023-08-17T02:47:36;6.15;;;4.72;;
24567;SDS011;12731;52.182;8.716;2023-08-17T02:50:03;5.03;;;4.22;;
24567;SDS011;12731;52.182;8.716;2023-08-17T02:52:30;7.63;;;4.43;;
24567;SDS011;12731;52.182;8.716;2023-08-17T02:54:56;7.68;;;4.78;;
24567;SDS011;12731;52.182;8.716;2023-08-17T02:57:23;8.40;;;4.80;;
24567;SDS011;12731;52.182;8.716;2023-08-17T02:59:50;9.27;;;4.68;;
24567;SDS011;12731;52.182;8.716;2023-08-17T03:02:17;8.90;;;4.70;;
24567;SDS011;12731;52.182;8.716;2023-08-17T03:04:43;6.82;;;4.55;;
24567;SDS011;12731;52.182;8.716;2023-08-17T03:07:10;8.32;;;4.57;;
24567;SDS011;12731;52.182;8.716;2023-08-17T03:09:36;5.30;;;4.30;;
24567;SDS011;12731;52.182;8.716;2023-08-17T03:12:03;6.20;;;4.75;;
24567;SDS011;12731;52.182;8.716;2023-08-17T03:14:29;7.07;;;4.60;;
24567;SDS011;12731;52.182;8.716;2023-08-17T03:16:56;5.63;;;4.30;;
24567;SDS011;12731;52.182;8.716;2023-08-17T03:19:22;6.55;;;4.82;;
24567;SDS011;12731;52.182;8.716;2023-08-17T03:21:49;8.90;;;4.80;;
24567;SDS011;12731;52.182;8.716;2023-08-17T03:24:15;6.93;;;4.90;;
24567;SDS011;12731;52.182;8.716;2023-08-17T03:26:42;6.30;;;4.63;;
24567;SDS011;12731;52.182;8.716;2023-08-17T03:29:09;5.57;;;4.50;;
24567;SDS011;12731;52.182;8.716;2023-08-17T03:31:36;5.40;;;4.45;;
24567;SDS011;12731;52.182;8.716;2023-08-17T03:34:03;5.78;;;4.55;;
24567;SDS011;12731;52.182;8.716;2023-08-17T03:36:29;5.30;;;4.80;;
24567;SDS011;12731;52.182;8.716;2023-08-17T03:38:56;7.75;;;4.82;;
24567;SDS011;12731;52.182;8.716;2023-08-17T03:41:22;6.45;;;4.55;;
24567;SDS011;12731;52.182;8.716;2023-08-17T03:43:51;7.30;;;4.80;;
24567;SDS011;12731;52.182;8.716;2023-08-17T03:46:18;8.73;;;4.18;;
24567;SDS011;12731;52.182;8.716;2023-08-17T03:48:44;6.03;;;4.65;;
24567;SDS011;12731;52.182;8.716;2023-08-17T03:51:11;7.65;;;4.82;;
24567;SDS011;12731;52.182;8.716;2023-08-17T03:53:37;8.38;;;4.68;;
24567;SDS011;12731;52.182;8.716;2023-08-17T03:56:04;6.10;;;4.20;;
24567;SDS011;12731;52.182;8.716;2023-08-17T03:58:30;10.07;;;4.75;;
24567;SDS011;12731;52.182;8.716;2023-08-17T04:01:01;8.07;;;4.45;;
24567;SDS011;12731;52.182;8.716;2023-08-17T04:03:28;5.97;;;4.45;;
24567;SDS011;12731;52.182;8.716;2023-08-17T04:05:54;8.38;;;4.60;;
24567;SDS011;12731;52.182;8.716;2023-08-17T04:08:21;7.25;;;4.13;;
24567;SDS011;12731;52.182;8.716;2023-08-17T04:10:48;5.10;;;3.78;;
24567;SDS011;12731;52.182;8.716;2023-08-17T04:13:14;11.18;;;4.65;;
24567;SDS011;12731;52.182;8.716;2023-08-17T04:15:41;11.10;;;4.80;;
24567;SDS011;12731;52.182;8.716;2023-08-17T04:18:07;6.18;;;4.25;;
24567;SDS011;12731;52.182;8.716;2023-08-17T04:20:34;6.82;;;4.55;;
24567;SDS011;12731;52.182;8.716;2023-08-17T04:23:00;8.70;;;4.85;;
24567;SDS011;12731;52.182;8.716;2023-08-17T04:25:27;7.50;;;4.95;;
24567;SDS011;12731;52.182;8.716;2023-08-17T04:27:53;9.60;;;5.05;;
24567;SDS011;12731;52.182;8.716;2023-08-17T04:30:20;5.32;;;4.25;;
24567;SDS011;12731;52.182;8.716;2023-08-17T04:32:46;8.68;;;5.45;;
24567;SDS011;12731;52.182;8.716;2023-08-17T04:35:19;9.15;;;5.10;;
24567;SDS011;12731;52.182;8.716;2023-08-17T04:37:46;6.22;;;4.53;;
24567;SDS011;12731;52.182;8.716;2023-08-17T04:40:13;7.10;;;4.55;;
24567;SDS011;12731;52.182;8.716;2023-08-17T04:42:40;5.65;;;4.63;;
24567;SDS011;12731;52.182;8.716;2023-08-17T04:45:07;5.72;;;4.78;;
24567;SDS011;12731;52.182;8.716;2023-08-17T04:47:33;9.20;;;4.47;;
24567;SDS011;12731;52.182;8.716;2023-08-17T04:50:00;7.65;;;4.75;;
24567;SDS011;12731;52.182;8.716;2023-08-17T04:52:27;9.90;;;4.80;;
24567;SDS011;12731;52.182;8.716;2023-08-17T04:54:53;6.38;;;4.25;;
24567;SDS011;12731;52.182;8.716;2023-08-17T04:57:20;6.97;;;4.30;;
24567;SDS011;12731;52.182;8.716;2023-08-17T04:59:46;8.50;;;4.22;;
24567;SDS011;12731;52.182;8.716;2023-08-17T05:02:13;7.20;;;4.35;;
24567;SDS011;12731;52.182;8.716;2023-08-17T05:04:39;5.95;;;4.10;;
24567;SDS011;12731;52.182;8.716;2023-08-17T05:07:06;8.10;;;4.35;;
24567;SDS011;12731;52.182;8.716;2023-08-17T05:09:32;7.72;;;4.38;;
24567;SDS011;12731;52.182;8.716;2023-08-17T05:11:59;7.47;;;4.45;;
24567;SDS011;12731;52.182;8.716;2023-08-17T05:14:26;8.70;;;4.82;;
24567;SDS011;12731;52.182;8.716;2023-08-17T05:16:52;6.88;;;4.80;;
24567;SDS011;12731;52.182;8.716;2023-08-17T05:19:19;8.65;;;4.70;;
24567;SDS011;12731;52.182;8.716;2023-08-17T05:21:45;7.75;;;4.70;;
24567;SDS011;12731;52.182;8.716;2023-08-17T05:24:12;7.22;;;5.05;;
24567;SDS011;12731;52.182;8.716;2023-08-17T05:26:38;9.00;;;4.75;;
24567;SDS011;12731;52.182;8.716;2023-08-17T05:29:05;8.05;;;4.55;;
24567;SDS011;12731;52.182;8.716;2023-08-17T05:31:31;8.90;;;5.05;;
24567;SDS011;12731;52.182;8.716;2023-08-17T05:33:58;7.47;;;4.72;;
24567;SDS011;12731;52.182;8.716;2023-08-17T05:36:24;7.35;;;4.35;;
24567;SDS011;12731;52.182;8.716;2023-08-17T05:38:51;9.30;;;5.10;;
24567;SDS011;12731;52.182;8.716;2023-08-17T05:41:17;9.43;;;5.10;;
24567;SDS011;12731;52.182;8.716;2023-08-17T05:43:44;6.90;;;5.00;;
24567;SDS011;12731;52.182;8.716;2023-08-17T05:46:10;8.00;;;5.15;;
24567;SDS011;12731;52.182;8.716;2023-08-17T05:48:37;13.45;;;5.72;;
24567;SDS011;12731;52.182;8.716;2023-08-17T05:51:04;11.02;;;6.53;;
24567;SDS011;12731;52.182;8.716;2023-08-17T05:53:30;10.60;;;6.85;;
24567;SDS011;12731;52.182;8.716;2023-08-17T05:55:57;7.05;;;6.20;;
24567;SDS011;12731;52.182;8.716;2023-08-17T05:58:23;11.65;;;6.72;;
24567;SDS011;12731;52.182;8.716;2023-08-17T06:00:50;8.98;;;7.50;;
24567;SDS011;12731;52.182;8.716;2023-08-17T06:03:17;9.35;;;6.88;;
24567;SDS011;12731;52.182;8.716;2023-08-17T06:05:44;8.45;;;7.28;;
24567;SDS011;12731;52.182;8.716;2023-08-17T06:08:10;12.70;;;8.13;;
24567;SDS011;12731;52.182;8.716;2023-08-17T06:10:37;14.13;;;7.97;;
24567;SDS011;12731;52.182;8.716;2023-08-17T06:13:03;10.75;;;8.20;;
24567;SDS011;12731;52.182;8.716;2023-08-17T06:15:30;16.92;;;8.65;;
24567;SDS011;12731;52.182;8.716;2023-08-17T06:17:56;12.38;;;7.57;;
24567;SDS011;12731;52.182;8.716;2023-08-17T06:20:23;14.07;;;8.10;;
24567;SDS011;12731;52.182;8.716;2023-08-17T06:22:50;8.05;;;7.07;;
24567;SDS011;12731;52.182;8.716;2023-08-17T06:25:16;9.60;;;7.32;;
24567;SDS011;12731;52.182;8.716;2023-08-17T06:27:43;13.00;;;8.40;;
24567;SDS011;12731;52.182;8.716;2023-08-17T06:30:13;13.98;;;8.20;;
24567;SDS011;12731;52.182;8.716;2023-08-17T06:32:45;9.40;;;7.60;;
24567;SDS011;12731;52.182;8.716;2023-08-17T06:35:12;11.98;;;8.35;;
24567;SDS011;12731;52.182;8.716;2023-08-17T06:37:38;11.60;;;7.45;;
24567;SDS011;12731;52.182;8.716;2023-08-17T06:40:05;13.13;;;8.27;;
24567;SDS011;12731;52.182;8.716;2023-08-17T06:42:32;12.25;;;8.40;;
24567;SDS011;12731;52.182;8.716;2023-08-17T06:44:59;10.30;;;8.07;;
24567;SDS011;12731;52.182;8.716;2023-08-17T06:47:25;13.20;;;9.00;;
24567;SDS011;12731;52.182;8.716;2023-08-17T06:49:52;11.32;;;8.32;;
24567;SDS011;12731;52.182;8.716;2023-08-17T06:52:19;13.15;;;8.65;;
24567;SDS011;12731;52.182;8.716;2023-08-17T06:54:45;13.05;;;9.15;;
24567;SDS011;12731;52.182;8.716;2023-08-17T06:57:12;10.18;;;8.35;;
24567;SDS011;12731;52.182;8.716;2023-08-17T06:59:38;9.85;;;8.50;;
24567;SDS011;12731;52.182;8.716;2023-08-17T07:02:05;13.15;;;9.80;;
24567;SDS011;12731;52.182;8.716;2023-08-17T07:04:32;13.80;;;9.43;;
24567;SDS011;12731;52.182;8.716;2023-08-17T07:06:58;14.63;;;9.88;;
24567;SDS011;12731;52.182;8.716;2023-08-17T07:09:25;12.05;;;9.20;;
24567;SDS011;12731;52.182;8.716;2023-08-17T07:11:54;11.95;;;10.10;;
24567;SDS011;12731;52.182;8.716;2023-08-17T07:14:20;10.88;;;9.50;;
24567;SDS011;12731;52.182;8.716;2023-08-17T07:16:48;14.13;;;9.90;;
24567;SDS011;12731;52.182;8.716;2023-08-17T07:19:14;13.00;;;9.70;;
24567;SDS011;12731;52.182;8.716;2023-08-17T07:21:41;12.10;;;9.77;;
24567;SDS011;12731;52.182;8.716;2023-08-17T07:24:11;12.32;;;9.70;;
24567;SDS011;12731;52.182;8.716;2023-08-17T07:26:39;10.90;;;9.07;;
24567;SDS011;12731;52.182;8.716;2023-08-17T07:29:05;11.30;;;9.85;;
24567;SDS011;12731;52.182;8.716;2023-08-17T07:31:32;11.15;;;9.05;;
24567;SDS011;12731;52.182;8.716;2023-08-17T07:34:00;10.93;;;8.45;;
24567;SDS011;12731;52.182;8.716;2023-08-17T07:36:26;11.50;;;8.82;;
24567;SDS011;12731;52.182;8.716;2023-08-17T07:38:53;10.50;;;8.88;;
24567;SDS011;12731;52.182;8.716;2023-08-17T07:41:19;11.05;;;8.38;;
24567;SDS011;12731;52.182;8.716;2023-08-17T07:43:46;12.43;;;8.48;;
24567;SDS011;12731;52.182;8.716;2023-08-17T07:46:13;11.80;;;8.77;;
24567;SDS011;12731;52.182;8.716;2023-08-17T07:48:39;10.30;;;7.93;;
24567;SDS011;12731;52.182;8.716;2023-08-17T07:51:06;9.50;;;8.43;;
24567;SDS011;12731;52.182;8.716;2023-08-17T07:53:32;8.70;;;7.78;;
24567;SDS011;12731;52.182;8.716;2023-08-17T07:55:59;9.90;;;8.38;;
24567;SDS011;12731;52.182;8.716;2023-08-17T07:58:25;9.40;;;7.72;;
24567;SDS011;12731;52.182;8.716;2023-08-17T08:00:52;10.45;;;7.88;;
24567;SDS011;12731;52.182;8.716;2023-08-17T08:03:18;9.50;;;8.50;;
24567;SDS011;12731;52.182;8.716;2023-08-17T08:05:45;9.55;;;8.02;;
24567;SDS011;12731;52.182;8.716;2023-08-17T08:08:11;8.93;;;8.02;;
24567;SDS011;12731;52.182;8.716;2023-08-17T08:10:38;10.10;;;7.82;;
24567;SDS011;12731;52.182;8.716;2023-08-17T08:13:04;9.23;;;8.15;;
24567;SDS011;12731;52.182;8.716;2023-08-17T08:15:32;10.48;;;7.55;;
24567;SDS011;12731;52.182;8.716;2023-08-17T08:17:59;8.90;;;7.65;;
24567;SDS011;12731;52.182;8.716;2023-08-17T08:20:25;10.10;;;7.47;;
24567;SDS011;12731;52.182;8.716;2023-08-17T08:22:52;8.40;;;7.25;;
24567;SDS011;12731;52.182;8.716;2023-08-17T08:25:18;12.02;;;8.13;;
24567;SDS011;12731;52.182;8.716;2023-08-17T08:27:45;10.05;;;7.47;;
24567;SDS011;12731;52.182;8.716;2023-08-17T08:30:11;8.57;;;7.07;;
24567;SDS011;12731;52.182;8.716;2023-08-17T08:32:38;9.70;;;7.22;;
24567;SDS011;12731;52.182;8.716;2023-08-17T08:35:04;8.18;;;7.38;;
24567;SDS011;12731;52.182;8.716;2023-08-17T08:37:31;9.48;;;7.53;;
24567;SDS011;12731;52.182;8.716;2023-08-17T08:39:58;9.10;;;7.80;;
24567;SDS011;12731;52.182;8.716;2023-08-17T08:42:25;11.07;;;8.13;;
24567;SDS011;12731;52.182;8.716;2023-08-17T08:44:51;8.30;;;7.00;;
24567;SDS011;12731;52.182;8.716;2023-08-17T08:47:18;7.88;;;7.07;;
24567;SDS011;12731;52.182;8.716;2023-08-17T08:49:49;9.13;;;8.15;;
24567;SDS011;12731;52.182;8.716;2023-08-17T08:52:22;7.95;;;7.15;;
24567;SDS011;12731;52.182;8.716;2023-08-17T08:54:50;8.57;;;7.03;;
24567;SDS011;12731;52.182;8.716;2023-08-17T08:57:19;7.93;;;6.95;;
24567;SDS011;12731;52.182;8.716;2023-08-17T08:59:46;10.02;;;6.82;;
24567;SDS011;12731;52.182;8.716;2023-08-17T09:02:14;10.48;;;7.57;;
24567;SDS011;12731;52.182;8.716;2023-08-17T09:04:43;8.57;;;7.45;;
24567;SDS011;12731;52.182;8.716;2023-08-17T09:07:11;9.63;;;7.10;;
24567;SDS011;12731;52.182;8.716;2023-08-17T09:09:38;8.20;;;7.30;;
24567;SDS011;12731;52.182;8.716;2023-08-17T09:12:06;8.88;;;7.40;;
24567;SDS011;12731;52.182;8.716;2023-08-17T09:14:33;7.63;;;6.88;;
24567;SDS011;12731;52.182;8.716;2023-08-17T09:17:00;8.35;;;6.90;;
24567;SDS011;12731;52.182;8.716;2023-08-17T09:19:26;7.80;;;7.00;;
24567;SDS011;12731;52.182;8.716;2023-08-17T09:21:54;8.18;;;7.32;;
24567;SDS011;12731;52.182;8.716;2023-08-17T09:24:20;9.18;;;7.80;;
24567;SDS011;12731;52.182;8.716;2023-08-17T09:26:48;8.73;;;7.32;;
24567;SDS011;12731;52.182;8.716;2023-08-17T09:29:16;7.68;;;6.80;;
24567;SDS011;12731;52.182;8.716;2023-08-17T09:31:44;9.30;;;7.85;;
24567;SDS011;12731;52.182;8.716;2023-08-17T09:34:11;8.18;;;7.47;;
24567;SDS011;12731;52.182;8.716;2023-08-17T09:36:40;9.93;;;7.53;;
24567;SDS011;12731;52.182;8.716;2023-08-17T09:39:07;9.50;;;7.65;;
24567;SDS011;12731;52.182;8.716;2023-08-17T09:41:42;7.82;;;7.07;;
24567;SDS011;12731;52.182;8.716;2023-08-17T09:44:09;9.45;;;7.28;;
24567;SDS011;12731;52.182;8.716;2023-08-17T09:46:35;7.90;;;6.93;;
24567;SDS011;12731;52.182;8.716;2023-08-17T09:49:02;6.20;;;5.70;;
24567;SDS011;12731;52.182;8.716;2023-08-17T09:51:31;8.77;;;6.43;;
24567;SDS011;12731;52.182;8.716;2023-08-17T09:53:58;8.20;;;6.78;;
24567;SDS011;12731;52.182;8.716;2023-08-17T09:56:26;9.55;;;7.53;;
24567;SDS011;12731;52.182;8.716;2023-08-17T09:58:53;6.97;;;6.38;;
24567;SDS011;12731;52.182;8.716;2023-08-17T10:01:21;7.20;;;6.57;;
24567;SDS011;12731;52.182;8.716;2023-08-17T10:03:49;7.90;;;6.07;;
24567;SDS011;12731;52.182;8.716;2023-08-17T10:06:17;7.22;;;6.60;;
24567;SDS011;12731;52.182;8.716;2023-08-17T10:08:52;8.80;;;6.63;;
24567;SDS011;12731;52.182;8.716;2023-08-17T10:11:19;6.68;;;6.00;;
24567;SDS011;12731;52.182;8.716;2023-08-17T10:13:48;8.15;;;6.35;;
24567;SDS011;12731;52.182;8.716;2023-08-17T10:16:28;7.35;;;5.82;;
24567;SDS011;12731;52.182;8.716;2023-08-17T10:21:43;7.28;;;6.50;;
24567;SDS011;12731;52.182;8.716;2023-08-17T10:24:11;9.43;;;6.90;;
24567;SDS011;12731;52.182;8.716;2023-08-17T10:26:38;8.50;;;7.00;;
24567;SDS011;12731;52.182;8.716;2023-08-17T10:29:05;8.13;;;6.55;;
24567;SDS011;12731;52.182;8.716;2023-08-17T10:31:43;7.82;;;6.70;;
24567;SDS011;12731;52.182;8.716;2023-08-17T10:34:12;8.23;;;6.35;;
24567;SDS011;12731;52.182;8.716;2023-08-17T10:36:39;8.68;;;6.68;;
24567;SDS011;12731;52.182;8.716;2023-08-17T10:39:20;6.85;;;6.00;;
24567;SDS011;12731;52.182;8.716;2023-08-17T10:41:50;7.13;;;6.18;;
24567;SDS011;12731;52.182;8.716;2023-08-17T10:44:18;7.30;;;6.32;;
24567;SDS011;12731;52.182;8.716;2023-08-17T10:47:25;6.80;;;5.88;;
24567;SDS011;12731;52.182;8.716;2023-08-17T10:50:02;8.93;;;6.82;;
24567;SDS011;12731;52.182;8.716;2023-08-17T10:52:37;7.35;;;6.10;;
24567;SDS011;12731;52.182;8.716;2023-08-17T10:55:05;6.55;;;5.80;;
24567;SDS011;12731;52.182;8.716;2023-08-17T10:57:39;6.70;;;6.10;;
24567;SDS011;12731;52.182;8.716;2023-08-17T11:02:51;8.55;;;6.80;;
24567;SDS011;12731;52.182;8.716;2023-08-17T11:08:05;6.85;;;5.78;;
24567;SDS011;12731;52.182;8.716;2023-08-17T11:10:32;6.03;;;5.43;;
24567;SDS011;12731;52.182;8.716;2023-08-17T11:12:59;7.75;;;6.03;;
24567;SDS011;12731;52.182;8.716;2023-08-17T11:15:26;6.35;;;5.50;;
24567;SDS011;12731;52.182;8.716;2023-08-17T11:18:07;5.35;;;4.85;;
24567;SDS011;12731;52.182;8.716;2023-08-17T11:20:36;6.03;;;5.13;;
24567;SDS011;12731;52.182;8.716;2023-08-17T11:23:04;5.80;;;5.05;;
24567;SDS011;12731;52.182;8.716;2023-08-17T11:25:32;8.13;;;5.00;;
24567;SDS011;12731;52.182;8.716;2023-08-17T11:28:00;6.45;;;5.20;;
24567;SDS011;12731;52.182;8.716;2023-08-17T11:30:27;6.00;;;5.32;;
24567;SDS011;12731;52.182;8.716;2023-08-17T11:32:55;5.28;;;4.78;;
24567;SDS011;12731;52.182;8.716;2023-08-17T11:35:22;7.63;;;4.80;;
24567;SDS011;12731;52.182;8.716;2023-08-17T11:37:48;8.10;;;4.85;;
24567;SDS011;12731;52.182;8.716;2023-08-17T11:40:15;6.35;;;4.97;;
24567;SDS011;12731;52.182;8.716;2023-08-17T11:42:42;6.70;;;4.40;;
24567;SDS011;12731;52.182;8.716;2023-08-17T11:45:09;5.25;;;4.60;;
24567;SDS011;12731;52.182;8.716;2023-08-17T11:47:36;5.72;;;4.63;;
24567;SDS011;12731;52.182;8.716;2023-08-17T11:50:04;7.22;;;4.80;;
24567;SDS011;12731;52.182;8.716;2023-08-17T11:55:15;6.15;;;4.55;;
24567;SDS011;12731;52.182;8.716;2023-08-17T11:57:43;5.10;;;4.60;;
24567;SDS011;12731;52.182;8.716;2023-08-17T12:00:10;5.50;;;4.40;;
24567;SDS011;12731;52.182;8.716;2023-08-17T12:02:43;6.10;;;4.78;;
24567;SDS011;12731;52.182;8.716;2023-08-17T12:05:11;4.70;;;4.20;;
24567;SDS011;12731;52.182;8.716;2023-08-17T12:07:38;4.93;;;4.40;;
24567;SDS011;12731;52.182;8.716;2023-08-17T12:10:04;9.10;;;4.85;;
24567;SDS011;12731;52.182;8.716;2023-08-17T12:12:35;7.55;;;4.93;;
24567;SDS011;12731;52.182;8.716;2023-08-17T12:15:03;5.97;;;4.60;;
24567;SDS011;12731;52.182;8.716;2023-08-17T12:17:30;5.68;;;4.68;;
24567;SDS011;12731;52.182;8.716;2023-08-17T12:19:58;6.68;;;4.38;;
24567;SDS011;12731;52.182;8.716;2023-08-17T12:22:25;5.85;;;4.22;;
24567;SDS011;12731;52.182;8.716;2023-08-17T12:24:52;5.63;;;4.20;;
24567;SDS011;12731;52.182;8.716;2023-08-17T12:27:21;4.90;;;4.28;;
24567;SDS011;12731;52.182;8.716;2023-08-17T12:29:48;6.53;;;4.53;;
24567;SDS011;12731;52.182;8.716;2023-08-17T12:32:16;8.25;;;4.75;;
24567;SDS011;12731;52.182;8.716;2023-08-17T12:34:46;9.27;;;4.95;;
24567;SDS011;12731;52.182;8.716;2023-08-17T12:37:17;7.88;;;4.82;;
24567;SDS011;12731;52.182;8.716;2023-08-17T12:39:45;7.50;;;4.70;;
24567;SDS011;12731;52.182;8.716;2023-08-17T12:42:12;7.72;;;4.10;;
24567;SDS011;12731;52.182;8.716;2023-08-17T12:44:40;5.95;;;3.95;;
24567;SDS011;12731;52.182;8.716;2023-08-17T12:47:07;7.82;;;4.90;;
24567;SDS011;12731;52.182;8.716;2023-08-17T12:49:33;6.00;;;4.20;;
24567;SDS011;12731;52.182;8.716;2023-08-17T12:52:04;6.25;;;4.30;;
24567;SDS011;12731;52.182;8.716;2023-08-17T12:54:31;5.88;;;4.47;;
24567;SDS011;12731;52.182;8.716;2023-08-17T12:56:57;6.68;;;4.10;;
24567;SDS011;12731;52.182;8.716;2023-08-17T12:59:27;5.72;;;3.63;;
24567;SDS011;12731;52.182;8.716;2023-08-17T13:01:53;5.32;;;3.50;;
24567;SDS011;12731;52.182;8.716;2023-08-17T13:04:20;7.15;;;4.10;;
24567;SDS011;12731;52.182;8.716;2023-08-17T13:06:46;4.53;;;3.63;;
24567;SDS011;12731;52.182;8.716;2023-08-17T13:09:15;6.22;;;3.45;;
24567;SDS011;12731;52.182;8.716;2023-08-17T13:11:42;5.72;;;3.40;;
24567;SDS011;12731;52.182;8.716;2023-08-17T13:14:08;4.93;;;3.60;;
24567;SDS011;12731;52.182;8.716;2023-08-17T13:16:35;7.88;;;4.68;;
24567;SDS011;12731;52.182;8.716;2023-08-17T13:19:02;6.35;;;4.53;;
24567;SDS011;12731;52.182;8.716;2023-08-17T13:21:28;7.18;;;5.22;;
24567;SDS011;12731;52.182;8.716;2023-08-17T13:23:55;6.97;;;4.88;;
24567;SDS011;12731;52.182;8.716;2023-08-17T13:26:22;8.20;;;4.90;;
24567;SDS011;12731;52.182;8.716;2023-08-17T13:28:48;6.32;;;4.65;;
24567;SDS011;12731;52.182;8.716;2023-08-17T13:31:15;7.28;;;4.85;;
24567;SDS011;12731;52.182;8.716;2023-08-17T13:33:50;7.60;;;5.13;;
24567;SDS011;12731;52.182;8.716;2023-08-17T13:36:17;7.15;;;5.07;;
24567;SDS011;12731;52.182;8.716;2023-08-17T13:38:44;6.78;;;5.38;;
24567;SDS011;12731;52.182;8.716;2023-08-17T13:41:12;8.57;;;5.15;;
24567;SDS011;12731;52.182;8.716;2023-08-17T13:43:39;7.72;;;4.90;;
24567;SDS011;12731;52.182;8.716;2023-08-17T13:46:06;10.48;;;6.13;;
24567;SDS011;12731;52.182;8.716;2023-08-17T13:48:33;7.75;;;5.50;;
24567;SDS011;12731;52.182;8.716;2023-08-17T13:50:59;9.10;;;5.97;;
24567;SDS011;12731;52.182;8.716;2023-08-17T13:53:26;10.40;;;5.30;;
24567;SDS011;12731;52.182;8.716;2023-08-17T13:55:52;9.38;;;5.68;;
24567;SDS011;12731;52.182;8.716;2023-08-17T13:58:19;9.25;;;4.90;;
24567;SDS011;12731;52.182;8.716;2023-08-17T14:00:45;10.73;;;5.20;;
24567;SDS011;12731;52.182;8.716;2023-08-17T14:03:12;10.52;;;5.40;;
24567;SDS011;12731;52.182;8.716;2023-08-17T14:05:38;10.93;;;6.13;;
24567;SDS011;12731;52.182;8.716;2023-08-17T14:08:05;10.35;;;6.03;;
24567;SDS011;12731;52.182;8.716;2023-08-17T14:10:32;7.75;;;5.45;;
24567;SDS011;12731;52.182;8.716;2023-08-17T14:13:05;8.80;;;5.60;;
24567;SDS011;12731;52.182;8.716;2023-08-17T14:15:32;11.82;;;5.70;;
24567;SDS011;12731;52.182;8.716;2023-08-17T14:17:58;10.77;;;5.60;;
24567;SDS011;12731;52.182;8.716;2023-08-17T14:20:25;8.75;;;5.50;;
24567;SDS011;12731;52.182;8.716;2023-08-17T14:22:52;12.80;;;5.53;;
24567;SDS011;12731;52.182;8.716;2023-08-17T14:25:18;8.65;;;5.60;;
24567;SDS011;12731;52.182;8.716;2023-08-17T14:27:45;9.48;;;5.65;;
24567;SDS011;12731;52.182;8.716;2023-08-17T14:30:11;9.57;;;6.00;;
24567;SDS011;12731;52.182;8.716;2023-08-17T14:32:38;12.35;;;6.32;;
24567;SDS011;12731;52.182;8.716;2023-08-17T14:35:04;10.63;;;6.72;;
24567;SDS011;12731;52.182;8.716;2023-08-17T14:37:37;12.07;;;6.13;;
24567;SDS011;12731;52.182;8.716;2023-08-17T14:40:04;12.18;;;5.95;;
24567;SDS011;12731;52.182;8.716;2023-08-17T14:42:31;10.73;;;5.75;;
24567;SDS011;12731;52.182;8.716;2023-08-17T14:44:57;10.02;;;5.07;;
24567;SDS011;12731;52.182;8.716;2023-08-17T14:47:24;8.98;;;5.07;;
24567;SDS011;12731;52.182;8.716;2023-08-17T14:49:51;10.70;;;6.22;;
24567;SDS011;12731;52.182;8.716;2023-08-17T14:52:19;10.75;;;5.50;;
24567;SDS011;12731;52.182;8.716;2023-08-17T14:54:46;8.95;;;5.75;;
24567;SDS011;12731;52.182;8.716;2023-08-17T14:57:12;10.88;;;5.63;;
24567;SDS011;12731;52.182;8.716;2023-08-17T14:59:39;8.25;;;5.50;;
24567;SDS011;12731;52.182;8.716;2023-08-17T15:02:05;10.77;;;5.25;;
24567;SDS011;12731;52.182;8.716;2023-08-17T15:04:32;13.23;;;5.55;;